Airfield :
LOGIN :

Register | Disclaimer

   EN    FR    IT 

 










Legend :    VFR   Marginal VFR   IFR   Intensive IFR   Very Intensive IFR
Visi :
Ceiling :
>= 8 km
>= 3000ft
5 to 8 km
1000 to 3000 ft
1500m to 5 km
500 to 1000 ft
800 to 1500m
200 to 500 ft
< 800m
< 200 ft
Symbols :   Thunderstorms  Fog  Heavy snow  Heavy precipitations  Wind > 20 kt
SIGMETs :     Misc.  Thunderstorms  Icing  Turbulence  Mountain Waves  Volcanic Ashes






- Airport Elevation : 614 ft
- IATA code : CRL


EBCI - Charleroi

CURRENT METAR :
  • 141750Z 15008KT 130V190 CAVOK 19/14 Q1006 NOSIG

EXPIRED METARs :
  • 141720Z 15007KT 120V190 CAVOK 19/14 Q1006 NOSIG
  • 141650Z 15006KT CAVOK 19/14 Q1006 NOSIG
  • 141620Z 15007KT 130V190 CAVOK 20/14 Q1006 NOSIG
  • 141550Z 13006KT 110V170 CAVOK 21/14 Q1006 NOSIG
  • 141520Z 16008KT 130V190 CAVOK 21/14 Q1007 NOSIG

TAF TAF EBCI
Valid from the 14 at 18:00 until the 16 at 00:00 UTC


141700Z 1418/1524 15010KT 9999 FEW040TCU SCT050
TEMPO 1418/1422 12016G28KT 4500 SHRA
PROB30
TEMPO 1419/1421 2000 TSRA
BECMG 1423/1501 21010KT
TEMPO 1502/1518 4500 SHRA RA



MET'MAP, your aeronautical weather chart ! - Copyright ORBIFLY December 2007 - Disclaimer

ORBIFLY MET'MAP TEAM :

Programming & Development : Alexandra Zaïnal
Concept & Development : Baudouin d'Aumeries
Co-Development & Prog : Marc-Olivier Méhu
Technical & hardware support : Manuel Goepfert

Contact : metmap@orbifly.com




SOURCES & CREDITS :

   NOAA